createdAt,value
2017-02-18T00:00:29.969Z,2.91
2017-02-18T00:01:29.956Z,2.99
2017-02-18T00:02:29.911Z,3.09
2017-02-18T00:03:30.786Z,3.01
2017-02-18T00:04:30.879Z,2.91
2017-02-18T00:05:30.505Z,3.01
2017-02-18T00:06:29.881Z,2.96
2017-02-18T00:07:30.590Z,3.03
2017-02-18T00:08:30.580Z,2.99
2017-02-18T00:09:30.248Z,2.96
2017-02-18T00:10:30.461Z,3.05
2017-02-18T00:11:30.188Z,3.05
2017-02-18T00:12:29.081Z,2.91
2017-02-18T00:13:29.576Z,2.96
2017-02-18T00:14:29.770Z,3.05
2017-02-18T00:15:29.756Z,3.08
2017-02-18T00:16:29.945Z,2.93
2017-02-18T00:17:30.404Z,3.05
2017-02-18T00:18:29.124Z,2.93
2017-02-18T00:19:29.364Z,3.03
2017-02-18T00:20:29.685Z,2.91
2017-02-18T00:21:29.639Z,2.99
2017-02-18T00:22:29.653Z,2.96
2017-02-18T00:23:29.274Z,3.09
2017-02-18T00:24:29.620Z,3.08
2017-02-18T00:25:29.612Z,3.03
2017-02-18T00:26:29.606Z,2.98
2017-02-18T00:27:29.580Z,3.05
2017-02-18T00:28:29.570Z,3.02
2017-02-18T00:29:29.537Z,2.99
2017-02-18T00:30:29.540Z,3.02
2017-02-18T00:31:29.589Z,3.03
2017-02-18T00:32:29.508Z,2.93
2017-02-18T00:33:29.603Z,3.03
2017-02-18T00:34:29.493Z,2.99
2017-02-18T00:35:29.467Z,2.99
2017-02-18T00:36:29.432Z,2.87
2017-02-18T00:37:29.404Z,2.85
2017-02-18T00:38:29.009Z,2.9
2017-02-18T00:39:29.881Z,2.93
2017-02-18T00:40:29.484Z,2.93
2017-02-18T00:41:28.998Z,2.87
2017-02-18T00:42:29.427Z,2.81
2017-02-18T00:43:29.826Z,2.77
2017-02-18T00:44:29.823Z,2.76
2017-02-18T00:45:29.339Z,2.7
2017-02-18T00:46:29.264Z,2.81
2017-02-18T00:47:29.010Z,2.78
2017-02-18T00:48:28.649Z,2.73
2017-02-18T00:49:29.258Z,2.81
2017-02-18T00:50:29.251Z,2.76
2017-02-18T00:51:29.206Z,2.73
2017-02-18T00:52:29.663Z,2.77
2017-02-18T00:53:29.184Z,2.83
2017-02-18T00:54:29.184Z,2.77
2017-02-18T00:55:29.151Z,2.8
2017-02-18T00:56:29.169Z,2.77
2017-02-18T00:57:29.135Z,2.73
2017-02-18T00:58:29.124Z,2.77
2017-02-18T00:59:28.800Z,2.81
2017-02-18T01:00:29.419Z,2.7
2017-02-18T01:01:28.745Z,2.7
2017-02-18T01:02:28.731Z,2.66
2017-02-18T01:03:29.052Z,2.59
2017-02-18T01:04:29.060Z,2.72
2017-02-18T01:05:29.351Z,2.65
2017-02-18T01:06:28.991Z,2.59
2017-02-18T01:07:28.984Z,2.69
2017-02-18T01:08:28.966Z,2.59
2017-02-18T01:09:28.952Z,2.66
2017-02-18T01:10:28.950Z,2.59
2017-02-18T01:11:28.908Z,2.7
2017-02-18T01:12:28.885Z,2.66
2017-02-18T01:13:28.494Z,2.69
2017-02-18T01:14:28.860Z,2.62
2017-02-18T01:15:29.135Z,2.55
2017-02-18T01:16:28.859Z,2.58
2017-02-18T01:17:28.839Z,2.63
2017-02-18T01:18:28.811Z,2.55
2017-02-18T01:19:28.793Z,2.6
2017-02-18T01:20:28.774Z,2.51
2017-02-18T01:21:28.771Z,2.63
2017-02-18T01:22:28.748Z,2.6
2017-02-18T01:23:28.745Z,2.54
2017-02-18T01:24:29.194Z,2.51
2017-02-18T01:25:28.448Z,2.63
2017-02-18T01:26:28.705Z,2.63
2017-02-18T01:27:28.317Z,2.55
2017-02-18T01:28:28.655Z,2.58
2017-02-18T01:29:28.655Z,2.66
2017-02-18T01:30:28.643Z,2.55
2017-02-18T01:31:28.668Z,2.65
2017-02-18T01:32:28.604Z,2.6
2017-02-18T01:33:29.035Z,2.69
2017-02-18T01:34:28.733Z,2.65
2017-02-18T01:35:28.648Z,2.67
2017-02-18T01:36:28.535Z,2.65
2017-02-18T01:37:28.522Z,2.7
2017-02-18T01:38:28.517Z,2.66
2017-02-18T01:39:28.095Z,2.55
2017-02-18T01:40:28.467Z,2.54
2017-02-18T01:41:28.049Z,2.55
2017-02-18T01:42:28.046Z,2.55
2017-02-18T01:43:28.433Z,2.72
2017-02-18T01:44:28.418Z,2.69
2017-02-18T01:45:27.998Z,2.66
2017-02-18T01:46:28.392Z,2.52
2017-02-18T01:47:28.399Z,2.66
2017-02-18T01:48:27.955Z,2.62
2017-02-18T01:49:27.947Z,2.63
2017-02-18T01:50:27.939Z,2.66
2017-02-18T01:51:27.922Z,2.62
2017-02-18T01:52:27.899Z,2.55
2017-02-18T01:53:27.876Z,2.54
2017-02-18T01:54:28.346Z,2.54
2017-02-18T01:55:28.243Z,2.51
2017-02-18T01:56:28.235Z,2.59
2017-02-18T01:57:28.221Z,2.52
2017-02-18T01:58:28.219Z,2.6
2017-02-18T01:59:28.187Z,2.51
2017-02-18T02:00:28.186Z,2.58
2017-02-18T02:01:28.141Z,2.54
2017-02-18T02:02:27.787Z,2.6
2017-02-18T02:03:28.122Z,2.62
2017-02-18T02:04:28.115Z,2.55
2017-02-18T02:05:28.108Z,2.6
2017-02-18T02:06:28.078Z,2.6
2017-02-18T02:07:28.108Z,2.54
2017-02-18T02:08:27.647Z,2.66
2017-02-18T02:09:28.047Z,2.65
2017-02-18T02:10:28.024Z,2.62
2017-02-18T02:11:28.008Z,2.59
2017-02-18T02:12:27.593Z,2.66
2017-02-18T02:13:27.976Z,2.65
2017-02-18T02:14:27.965Z,2.63
2017-02-18T02:15:27.940Z,2.66
2017-02-18T02:16:27.935Z,2.62
2017-02-18T02:17:27.504Z,2.6
2017-02-18T02:18:27.907Z,2.66
2017-02-18T02:19:27.876Z,2.66
2017-02-18T02:20:27.887Z,2.66
2017-02-18T02:21:27.451Z,2.59
2017-02-18T02:22:27.461Z,2.66
2017-02-18T02:23:27.838Z,2.76
2017-02-18T02:24:27.799Z,2.59
2017-02-18T02:25:27.794Z,2.73
2017-02-18T02:26:27.792Z,2.65
2017-02-18T02:27:27.770Z,2.77
2017-02-18T02:28:27.757Z,2.69
2017-02-18T02:29:27.740Z,2.72
2017-02-18T02:30:27.716Z,2.66
2017-02-18T02:31:27.727Z,2.63
2017-02-18T02:32:27.691Z,2.69
2017-02-18T02:33:27.702Z,2.76
2017-02-18T02:34:27.685Z,2.67
2017-02-18T02:35:27.657Z,2.76
2017-02-18T02:36:27.627Z,2.65
2017-02-18T02:37:27.621Z,2.67
2017-02-18T02:38:27.615Z,2.72
2017-02-18T02:39:27.583Z,2.81
2017-02-18T02:40:27.585Z,2.63
2017-02-18T02:41:27.572Z,2.72
2017-02-18T02:42:27.536Z,2.76
2017-02-18T02:43:27.522Z,2.7
2017-02-18T02:44:27.510Z,2.72
2017-02-18T02:45:27.507Z,2.69
2017-02-18T02:46:27.469Z,2.72
2017-02-18T02:47:27.455Z,2.76
2017-02-18T02:48:27.472Z,2.76
2017-02-18T02:49:27.431Z,2.65
2017-02-18T02:50:27.425Z,2.66
2017-02-18T02:51:27.422Z,2.69
2017-02-18T02:52:27.392Z,2.63
2017-02-18T02:53:27.386Z,2.73
2017-02-18T02:54:27.383Z,2.73
2017-02-18T02:55:27.354Z,2.66
2017-02-18T02:56:26.936Z,2.63
2017-02-18T02:57:27.320Z,2.66
2017-02-18T02:58:27.303Z,2.65
2017-02-18T02:59:27.289Z,2.59
2017-02-18T03:00:27.274Z,2.67
2017-02-18T03:01:27.264Z,2.7
2017-02-18T03:02:27.248Z,2.66
2017-02-18T03:03:27.231Z,2.63
2017-02-18T03:04:27.202Z,2.63
2017-02-18T03:05:27.191Z,2.7
2017-02-18T03:06:27.194Z,2.67
2017-02-18T03:07:27.161Z,2.59
2017-02-18T03:08:27.163Z,2.76
2017-02-18T03:09:27.136Z,2.63
2017-02-18T03:10:27.137Z,2.62
2017-02-18T03:11:27.111Z,2.65
2017-02-18T03:12:26.753Z,2.67
2017-02-18T03:13:27.070Z,2.59
2017-02-18T03:14:27.071Z,2.66
2017-02-18T03:15:27.032Z,2.69
2017-02-18T03:16:27.023Z,2.69
2017-02-18T03:17:26.957Z,2.67
2017-02-18T03:18:27.157Z,2.62
2017-02-18T03:19:26.994Z,2.6
2017-02-18T03:20:26.972Z,2.59
2017-02-18T03:21:27.020Z,2.63
2017-02-18T03:22:26.934Z,2.63
2017-02-18T03:23:26.928Z,2.7
2017-02-18T03:24:26.921Z,2.7
2017-02-18T03:25:26.891Z,2.65
2017-02-18T03:26:26.897Z,2.59
2017-02-18T03:27:26.865Z,2.72
2017-02-18T03:28:26.667Z,2.69
2017-02-18T03:29:26.947Z,2.63
2017-02-18T03:30:26.837Z,2.62
2017-02-18T03:31:26.825Z,2.72
2017-02-18T03:32:26.006Z,2.69
2017-02-18T03:33:26.808Z,2.69
2017-02-18T03:34:26.849Z,2.67
2017-02-18T03:35:26.760Z,2.7
2017-02-18T03:36:26.329Z,2.69
2017-02-18T03:37:26.727Z,2.72
2017-02-18T03:38:26.296Z,2.72
2017-02-18T03:39:26.683Z,2.69
2017-02-18T03:40:26.733Z,2.73
2017-02-18T03:41:26.700Z,2.73
2017-02-18T03:42:26.642Z,2.73
2017-02-18T03:43:26.619Z,2.66
2017-02-18T03:44:26.748Z,2.76
2017-02-18T03:45:26.590Z,2.76
2017-02-18T03:46:26.571Z,2.73
2017-02-18T03:47:26.672Z,2.76
2017-02-18T03:48:26.552Z,2.78
2017-02-18T03:49:26.543Z,2.77
2017-02-18T03:50:26.220Z,2.77
2017-02-18T03:51:26.499Z,2.85
2017-02-18T03:52:26.103Z,2.81
2017-02-18T03:53:26.836Z,2.78
2017-02-18T03:54:26.453Z,2.84
2017-02-18T03:55:26.432Z,2.81
2017-02-18T03:56:26.419Z,2.8
2017-02-18T03:57:26.655Z,2.8
2017-02-18T03:58:26.409Z,2.72
2017-02-18T03:59:26.377Z,2.78
2017-02-18T04:00:26.172Z,2.8
2017-02-18T04:01:26.357Z,2.76
2017-02-18T04:02:25.940Z,2.72
2017-02-18T04:03:26.124Z,2.76
2017-02-18T04:04:26.320Z,2.77
2017-02-18T04:05:26.310Z,2.72
2017-02-18T04:06:26.583Z,2.76
2017-02-18T04:07:26.932Z,2.7
2017-02-18T04:08:26.259Z,2.66
2017-02-18T04:09:26.246Z,2.72
2017-02-18T04:10:26.218Z,2.65
2017-02-18T04:11:26.210Z,2.72
2017-02-18T04:12:26.238Z,2.6
2017-02-18T04:13:26.190Z,2.7
2017-02-18T04:14:26.147Z,2.67
2017-02-18T04:15:26.136Z,2.69
2017-02-18T04:16:26.135Z,2.62
2017-02-18T04:17:26.116Z,2.59
2017-02-18T04:18:26.098Z,2.62
2017-02-18T04:19:26.091Z,2.6
2017-02-18T04:20:26.083Z,2.55
2017-02-18T04:21:26.315Z,2.58
2017-02-18T04:22:25.674Z,2.58
2017-02-18T04:23:26.853Z,2.51
2017-02-18T04:24:26.438Z,2.54
2017-02-18T04:25:26.707Z,2.44
2017-02-18T04:26:26.733Z,2.47
2017-02-18T04:27:26.608Z,2.49
2017-02-18T04:28:26.446Z,2.42
2017-02-18T04:29:26.099Z,2.47
2017-02-18T04:30:25.539Z,2.48
2017-02-18T04:31:25.914Z,2.48
2017-02-18T04:32:25.893Z,2.44
2017-02-18T04:33:25.908Z,2.4
2017-02-18T04:34:26.415Z,2.49
2017-02-18T04:35:26.485Z,2.44
2017-02-18T04:36:26.501Z,2.51
2017-02-18T04:37:26.547Z,2.42
2017-02-18T04:38:26.437Z,2.51
2017-02-18T04:39:26.438Z,2.48
2017-02-18T04:40:26.099Z,2.49
2017-02-18T04:41:26.501Z,2.47
2017-02-18T04:42:26.080Z,2.49
2017-02-18T04:43:25.987Z,2.48
2017-02-18T04:44:26.330Z,2.49
2017-02-18T04:45:26.326Z,2.54
2017-02-18T04:46:26.503Z,2.51
2017-02-18T04:47:25.866Z,2.58
2017-02-18T04:48:26.371Z,2.49
2017-02-18T04:49:25.969Z,2.54
2017-02-18T04:50:25.575Z,2.44
2017-02-18T04:51:26.286Z,2.52
2017-02-18T04:52:25.845Z,2.54
2017-02-18T04:53:25.789Z,2.51
2017-02-18T04:54:25.560Z,2.58
2017-02-18T04:55:25.562Z,2.58
2017-02-18T04:56:25.532Z,2.55
2017-02-18T04:57:25.522Z,2.6
2017-02-18T04:58:25.555Z,2.6
2017-02-18T04:59:25.468Z,2.54
2017-02-18T05:00:25.473Z,2.58
2017-02-18T05:01:25.457Z,2.59
2017-02-18T05:02:25.464Z,2.6
2017-02-18T05:03:25.914Z,2.51
2017-02-18T05:04:26.125Z,2.55
2017-02-18T05:05:25.339Z,2.58
2017-02-18T05:06:25.961Z,2.58
2017-02-18T05:07:25.889Z,2.54
2017-02-18T05:08:26.039Z,2.55
2017-02-18T05:09:25.875Z,2.59
2017-02-18T05:10:25.760Z,2.59
2017-02-18T05:11:25.764Z,2.52
2017-02-18T05:12:25.344Z,2.49
2017-02-18T05:13:25.270Z,2.59
2017-02-18T05:14:25.255Z,2.59
2017-02-18T05:15:25.250Z,2.55
2017-02-18T05:16:25.817Z,2.54
2017-02-18T05:17:25.844Z,2.55
2017-02-18T05:18:25.037Z,2.58
2017-02-18T05:19:25.574Z,2.55
2017-02-18T05:20:25.166Z,2.59
2017-02-18T05:21:25.144Z,2.62
2017-02-18T05:22:25.195Z,2.6
2017-02-18T05:23:25.126Z,2.6
2017-02-18T05:24:25.115Z,2.58
2017-02-18T05:25:25.102Z,2.58
2017-02-18T05:26:25.246Z,2.55
2017-02-18T05:27:24.950Z,2.52
2017-02-18T05:28:25.380Z,2.63
2017-02-18T05:29:25.607Z,2.6
2017-02-18T05:30:25.761Z,2.55
2017-02-18T05:31:25.708Z,2.59
2017-02-18T05:32:25.892Z,2.55
2017-02-18T05:33:25.546Z,2.54
2017-02-18T05:34:25.466Z,2.66
2017-02-18T05:35:25.607Z,2.63
2017-02-18T05:36:24.916Z,2.52
2017-02-18T05:37:24.903Z,2.51
2017-02-18T05:38:24.484Z,2.6
2017-02-18T05:39:24.895Z,2.63
2017-02-18T05:40:24.864Z,2.59
2017-02-18T05:41:24.952Z,2.54
2017-02-18T05:42:24.855Z,2.58
2017-02-18T05:43:25.427Z,2.54
2017-02-18T05:44:25.637Z,2.54
2017-02-18T05:45:25.440Z,2.62
2017-02-18T05:46:25.462Z,2.6
2017-02-18T05:47:25.293Z,2.55
2017-02-18T05:48:25.576Z,2.55
2017-02-18T05:49:25.221Z,2.6
2017-02-18T05:50:24.633Z,2.62
2017-02-18T05:51:24.703Z,2.6
2017-02-18T05:52:24.671Z,2.55
2017-02-18T05:53:24.665Z,2.59
2017-02-18T05:54:24.658Z,2.58
2017-02-18T05:55:24.635Z,2.63
2017-02-18T05:56:24.646Z,2.51
2017-02-18T05:57:24.625Z,2.52
2017-02-18T05:58:24.604Z,2.55
2017-02-18T05:59:24.632Z,2.55
2017-02-18T06:00:25.268Z,2.52
2017-02-18T06:01:25.245Z,2.58
2017-02-18T06:02:24.876Z,2.6
2017-02-18T06:03:24.528Z,2.52
2017-02-18T06:04:25.185Z,2.52
2017-02-18T06:05:24.809Z,2.62
2017-02-18T06:06:24.459Z,2.59
2017-02-18T06:07:24.456Z,2.55
2017-02-18T06:08:24.449Z,2.52
2017-02-18T06:09:24.423Z,2.55
2017-02-18T06:10:24.428Z,2.55
2017-02-18T06:11:24.405Z,2.59
2017-02-18T06:12:24.391Z,2.54
2017-02-18T06:13:24.373Z,2.51
2017-02-18T06:14:24.346Z,2.54
2017-02-18T06:15:24.351Z,2.54
2017-02-18T06:16:24.329Z,2.58
2017-02-18T06:17:24.313Z,2.49
2017-02-18T06:18:24.288Z,2.52
2017-02-18T06:19:24.289Z,2.54
2017-02-18T06:20:24.257Z,2.55
2017-02-18T06:21:24.242Z,2.54
2017-02-18T06:22:24.230Z,2.49
2017-02-18T06:23:24.213Z,2.62
2017-02-18T06:24:24.193Z,2.59
2017-02-18T06:25:24.189Z,2.54
2017-02-18T06:26:24.181Z,2.58
2017-02-18T06:27:24.158Z,2.55
2017-02-18T06:28:24.134Z,2.54
2017-02-18T06:29:24.124Z,2.58
2017-02-18T06:30:24.114Z,2.58
2017-02-18T06:31:24.103Z,2.52
2017-02-18T06:32:24.078Z,2.55
2017-02-18T06:33:24.070Z,2.55
2017-02-18T06:34:24.043Z,2.54
2017-02-18T06:35:24.044Z,2.55
2017-02-18T06:36:24.037Z,2.55
2017-02-18T06:37:23.999Z,2.59
2017-02-18T06:38:24.010Z,2.58
2017-02-18T06:39:23.982Z,2.54
2017-02-18T06:40:23.979Z,2.55
2017-02-18T06:41:23.956Z,2.54
2017-02-18T06:42:23.577Z,2.55
2017-02-18T06:43:23.928Z,2.55
2017-02-18T06:44:23.911Z,2.52
2017-02-18T06:45:23.896Z,2.58
2017-02-18T06:46:23.883Z,2.62
2017-02-18T06:47:23.875Z,2.59
2017-02-18T06:48:23.827Z,2.54
2017-02-18T06:49:23.816Z,2.51
2017-02-18T06:50:23.823Z,2.51
2017-02-18T06:51:23.794Z,2.52
2017-02-18T06:52:23.768Z,2.59
2017-02-18T06:53:23.774Z,2.58
2017-02-18T06:54:23.761Z,2.52
2017-02-18T06:55:23.749Z,2.58
2017-02-18T06:56:23.722Z,2.52
2017-02-18T06:57:23.722Z,2.54
2017-02-18T06:58:23.686Z,2.55
2017-02-18T06:59:23.698Z,2.54
2017-02-18T07:00:23.668Z,2.54
2017-02-18T07:01:23.672Z,2.58
2017-02-18T07:02:23.642Z,2.54
2017-02-18T07:03:23.625Z,2.58
2017-02-18T07:04:23.609Z,2.58
2017-02-18T07:05:23.205Z,2.55
2017-02-18T07:06:23.573Z,2.55
2017-02-18T07:07:23.567Z,2.55
2017-02-18T07:08:23.546Z,2.63
2017-02-18T07:09:23.586Z,2.63
2017-02-18T07:10:23.519Z,2.52
2017-02-18T07:11:23.499Z,2.55
2017-02-18T07:12:23.482Z,2.63
2017-02-18T07:13:23.459Z,2.62
2017-02-18T07:14:23.449Z,2.54
2017-02-18T07:15:23.447Z,2.52
2017-02-18T07:16:23.424Z,2.52
2017-02-18T07:17:23.413Z,2.51
2017-02-18T07:18:23.395Z,2.54
2017-02-18T07:19:23.377Z,2.51
2017-02-18T07:20:23.377Z,2.55
2017-02-18T07:21:23.363Z,2.6
2017-02-18T07:22:23.347Z,2.59
2017-02-18T07:23:23.343Z,2.6
2017-02-18T07:24:23.313Z,2.69
2017-02-18T07:25:23.276Z,2.69
2017-02-18T07:26:22.870Z,2.66
2017-02-18T07:27:23.265Z,2.59
2017-02-18T07:28:23.267Z,2.66
2017-02-18T07:29:23.230Z,2.58
2017-02-18T07:30:23.215Z,2.62
2017-02-18T07:31:22.793Z,2.65
2017-02-18T07:32:22.782Z,2.62
2017-02-18T07:33:23.183Z,2.63
2017-02-18T07:34:23.155Z,2.66
2017-02-18T07:35:23.162Z,2.59
2017-02-18T07:36:23.122Z,2.67
2017-02-18T07:37:23.118Z,2.65
2017-02-18T07:38:23.097Z,2.59
2017-02-18T07:39:23.079Z,2.62
2017-02-18T07:40:23.065Z,2.62
2017-02-18T07:41:23.041Z,2.66
2017-02-18T07:42:23.037Z,2.63
2017-02-18T07:43:23.017Z,2.77
2017-02-18T07:44:23.034Z,2.66
2017-02-18T07:45:22.992Z,2.62
2017-02-18T07:46:22.981Z,2.66
2017-02-18T07:47:22.970Z,2.6
2017-02-18T07:48:22.952Z,2.63
2017-02-18T07:49:22.937Z,2.63
2017-02-18T07:50:22.914Z,2.73
2017-02-18T07:51:22.903Z,2.7
2017-02-18T07:52:22.895Z,2.7
2017-02-18T07:53:22.875Z,2.66
2017-02-18T07:54:22.864Z,2.77
2017-02-18T07:55:22.835Z,2.69
2017-02-18T07:56:22.832Z,2.67
2017-02-18T07:57:22.800Z,2.76
2017-02-18T07:58:22.002Z,2.69
2017-02-18T07:59:22.784Z,2.76
2017-02-18T08:00:22.773Z,2.73
2017-02-18T08:01:22.358Z,2.69
2017-02-18T08:02:22.746Z,2.69
2017-02-18T08:03:22.716Z,2.59
2017-02-18T08:04:22.713Z,2.69
2017-02-18T08:05:22.699Z,2.7
2017-02-18T08:06:22.692Z,2.73
2017-02-18T08:07:22.670Z,2.7
2017-02-18T08:08:22.653Z,2.8
2017-02-18T08:09:22.662Z,2.81
2017-02-18T08:10:22.616Z,2.81
2017-02-18T08:11:22.604Z,2.77
2017-02-18T08:12:22.592Z,2.81
2017-02-18T08:13:22.584Z,2.85
2017-02-18T08:14:22.572Z,2.83
2017-02-18T08:15:22.544Z,2.87
2017-02-18T08:16:22.526Z,2.95
2017-02-18T08:17:22.512Z,2.91
2017-02-18T08:18:22.508Z,2.88
2017-02-18T08:19:22.481Z,2.9
2017-02-18T08:20:22.463Z,2.95
2017-02-18T08:21:22.882Z,2.95
2017-02-18T08:22:22.891Z,3.05
2017-02-18T08:23:22.865Z,3.16
2017-02-18T08:24:22.914Z,3.14
2017-02-18T08:25:22.820Z,3.23
2017-02-18T08:26:22.760Z,3.2
2017-02-18T08:27:22.790Z,3.2
2017-02-18T08:28:22.719Z,3.4
2017-02-18T08:29:22.808Z,3.48
2017-02-18T08:30:22.311Z,3.57
2017-02-18T08:31:22.740Z,3.64
2017-02-18T08:32:22.727Z,3.69
2017-02-18T08:33:22.716Z,3.76
2017-02-18T08:34:22.753Z,3.82
2017-02-18T08:35:22.688Z,3.86
2017-02-18T08:36:22.200Z,3.89
2017-02-18T08:37:22.528Z,3.92
2017-02-18T08:38:22.003Z,3.84
2017-02-18T08:39:22.493Z,3.93
2017-02-18T08:40:22.185Z,3.94
2017-02-18T08:41:22.162Z,3.96
2017-02-18T08:42:22.237Z,3.97
2017-02-18T08:43:22.136Z,3.92
2017-02-18T08:44:22.122Z,3.93
2017-02-18T08:45:22.111Z,3.97
2017-02-18T08:46:22.088Z,3.97
2017-02-18T08:47:22.087Z,4.02
2017-02-18T08:48:22.064Z,3.86
2017-02-18T08:49:22.067Z,3.86
2017-02-18T08:50:22.043Z,3.84
2017-02-18T08:51:22.033Z,3.85
2017-02-18T08:52:22.011Z,3.85
2017-02-18T08:53:22.002Z,3.74
2017-02-18T08:54:21.574Z,3.76
2017-02-18T08:55:21.957Z,3.78
2017-02-18T08:56:21.955Z,3.66
2017-02-18T08:57:21.923Z,3.69
2017-02-18T08:58:21.917Z,3.72
2017-02-18T08:59:21.925Z,3.66
2017-02-18T09:00:21.945Z,3.67
2017-02-18T09:01:21.870Z,3.66
2017-02-18T09:02:21.866Z,3.57
2017-02-18T09:03:21.852Z,3.69
2017-02-18T09:04:21.832Z,3.61
2017-02-18T09:05:21.427Z,3.56
2017-02-18T09:06:21.814Z,3.61
2017-02-18T09:07:21.810Z,3.6
2017-02-18T09:08:21.804Z,3.6
2017-02-18T09:09:21.769Z,3.63
2017-02-18T09:10:21.762Z,3.66
2017-02-18T09:11:21.745Z,3.79
2017-02-18T09:12:21.751Z,3.76
2017-02-18T09:13:21.712Z,3.75
2017-02-18T09:14:21.712Z,3.82
2017-02-18T09:15:21.705Z,3.84
2017-02-18T09:16:21.680Z,3.85
2017-02-18T09:17:21.655Z,3.81
2017-02-18T09:18:21.668Z,3.82
2017-02-18T09:19:21.632Z,3.86
2017-02-18T09:20:21.632Z,3.89
2017-02-18T09:21:21.200Z,3.89
2017-02-18T09:22:21.593Z,3.89
2017-02-18T09:23:21.570Z,3.9
2017-02-18T09:24:21.572Z,3.85
2017-02-18T09:25:21.536Z,3.96
2017-02-18T09:26:21.542Z,4
2017-02-18T09:27:21.512Z,3.99
2017-02-18T09:28:21.122Z,3.97
2017-02-18T09:29:21.493Z,3.92
2017-02-18T09:30:21.483Z,3.86
2017-02-18T09:31:21.477Z,3.86
2017-02-18T09:32:21.445Z,3.93
2017-02-18T09:33:21.040Z,3.96
2017-02-18T09:34:21.437Z,3.99
2017-02-18T09:35:21.030Z,4
2017-02-18T09:36:21.401Z,4.08
2017-02-18T09:37:20.980Z,4.08
2017-02-18T09:38:21.359Z,4.11
2017-02-18T09:39:21.360Z,4.15
2017-02-18T09:40:21.337Z,4.12
2017-02-18T09:41:21.348Z,4.1
2017-02-18T09:42:21.323Z,4.08
2017-02-18T09:43:21.302Z,4.15
2017-02-18T09:44:21.309Z,4.14
2017-02-18T09:45:21.270Z,4.17
2017-02-18T09:46:21.263Z,4.17
2017-02-18T09:47:21.250Z,4.2
2017-02-18T09:48:21.220Z,4.2
2017-02-18T09:49:21.265Z,4.24
2017-02-18T09:50:21.199Z,4.17
2017-02-18T09:51:21.186Z,4.17
2017-02-18T09:52:20.774Z,4.15
2017-02-18T09:53:21.178Z,4.12
2017-02-18T09:54:21.149Z,4.2
2017-02-18T09:55:21.181Z,4.17
2017-02-18T09:56:21.120Z,4.28
2017-02-18T09:57:21.115Z,4.29
2017-02-18T09:58:21.101Z,4.29
2017-02-18T09:59:21.073Z,4.3
2017-02-18T10:00:21.119Z,4.33
2017-02-18T10:01:21.039Z,4.38
2017-02-18T10:02:21.041Z,4.33
2017-02-18T10:03:21.039Z,4.32
2017-02-18T10:04:21.017Z,4.42
2017-02-18T10:05:21.003Z,4.4
2017-02-18T10:06:20.990Z,4.46
2017-02-18T10:07:20.990Z,4.5
2017-02-18T10:08:20.567Z,4.53
2017-02-18T10:09:20.953Z,4.57
2017-02-18T10:10:20.535Z,4.5
2017-02-18T10:11:20.916Z,4.48
2017-02-18T10:12:20.502Z,4.53
2017-02-18T10:13:20.493Z,4.53
2017-02-18T10:14:20.888Z,4.48
2017-02-18T10:15:20.866Z,4.48
2017-02-18T10:16:20.444Z,4.51
2017-02-18T10:17:20.909Z,4.5
2017-02-18T10:18:20.839Z,4.56
2017-02-18T10:19:20.806Z,4.48
2017-02-18T10:20:20.801Z,4.48
2017-02-18T10:21:20.801Z,4.53
2017-02-18T10:22:20.765Z,4.54
2017-02-18T10:23:20.759Z,4.47
2017-02-18T10:24:20.756Z,4.58
2017-02-18T10:25:20.739Z,4.61
2017-02-18T10:26:20.322Z,4.65
2017-02-18T10:27:20.691Z,4.68
2017-02-18T10:28:20.692Z,4.64
2017-02-18T10:29:20.688Z,4.57
2017-02-18T10:30:20.658Z,4.57
2017-02-18T10:31:20.702Z,4.58
2017-02-18T10:32:20.645Z,4.56
2017-02-18T10:33:20.629Z,4.4
2017-02-18T10:34:20.624Z,4.64
2017-02-18T10:35:20.601Z,4.53
2017-02-18T10:36:20.609Z,4.54
2017-02-18T10:37:20.577Z,4.51
2017-02-18T10:38:20.554Z,4.64
2017-02-18T10:39:20.560Z,4.64
2017-02-18T10:40:20.529Z,4.69
2017-02-18T10:41:20.527Z,4.72
2017-02-18T10:42:20.514Z,4.88
2017-02-18T10:43:20.503Z,4.9
2017-02-18T10:44:20.489Z,4.91
2017-02-18T10:45:20.464Z,4.91
2017-02-18T10:46:20.468Z,5.05
2017-02-18T10:47:20.456Z,5.15
2017-02-18T10:48:20.445Z,5.18
2017-02-18T10:49:20.414Z,5.18
2017-02-18T10:50:20.405Z,5.23
2017-02-18T10:51:20.403Z,5.2
2017-02-18T10:52:19.973Z,5.2
2017-02-18T10:53:20.364Z,5.26
2017-02-18T10:54:20.351Z,5.28
2017-02-18T10:55:20.353Z,5.23
2017-02-18T10:56:20.324Z,5.27
2017-02-18T10:57:20.307Z,5.28
2017-02-18T10:58:20.293Z,5.23
2017-02-18T10:59:20.286Z,5.27
2017-02-18T11:00:20.269Z,5.26
2017-02-18T11:01:20.252Z,5.37
2017-02-18T11:02:20.255Z,5.36
2017-02-18T11:03:20.235Z,5.37
2017-02-18T11:04:20.227Z,5.36
2017-02-18T11:05:20.211Z,5.34
2017-02-18T11:06:20.204Z,5.45
2017-02-18T11:07:20.208Z,5.39
2017-02-18T11:08:20.168Z,5.39
2017-02-18T11:09:20.158Z,5.42
2017-02-18T11:10:20.150Z,5.39
2017-02-18T11:11:20.159Z,5.52
2017-02-18T11:12:20.121Z,5.48
2017-02-18T11:13:20.123Z,5.41
2017-02-18T11:14:20.101Z,5.36
2017-02-18T11:15:20.087Z,5.42
2017-02-18T11:16:20.083Z,5.42
2017-02-18T11:17:20.053Z,5.41
2017-02-18T11:18:20.061Z,5.33
2017-02-18T11:19:20.037Z,5.34
2017-02-18T11:20:20.042Z,5.34
2017-02-18T11:21:19.998Z,5.42
2017-02-18T11:22:20.013Z,5.42
2017-02-18T11:23:19.585Z,5.57
2017-02-18T11:24:19.983Z,5.62
2017-02-18T11:25:19.972Z,5.57
2017-02-18T11:26:19.952Z,5.48
2017-02-18T11:27:19.943Z,5.49
2017-02-18T11:28:19.920Z,5.46
2017-02-18T11:29:19.899Z,5.46
2017-02-18T11:30:19.903Z,5.48
2017-02-18T11:31:19.891Z,5.45
2017-02-18T11:32:19.867Z,5.57
2017-02-18T11:33:19.859Z,5.57
2017-02-18T11:34:19.852Z,5.62
2017-02-18T11:35:19.832Z,5.77
2017-02-18T11:36:19.831Z,5.78
2017-02-18T11:37:19.821Z,5.96
2017-02-18T11:38:19.791Z,6
2017-02-18T11:39:19.806Z,6
2017-02-18T11:40:19.789Z,6.06
2017-02-18T11:41:19.747Z,6.07
2017-02-18T11:42:19.755Z,6.14
2017-02-18T11:43:19.740Z,6.05
2017-02-18T11:44:19.742Z,6.07
2017-02-18T11:45:19.712Z,6.06
2017-02-18T11:46:19.318Z,5.87
2017-02-18T11:47:19.691Z,5.75
2017-02-18T11:48:19.295Z,5.77
2017-02-18T11:49:19.674Z,5.73
2017-02-18T11:50:19.652Z,5.75
2017-02-18T11:51:19.637Z,5.69
2017-02-18T11:52:19.688Z,5.59
2017-02-18T11:53:19.641Z,5.64
2017-02-18T11:54:19.613Z,5.67
2017-02-18T11:55:19.207Z,5.63
2017-02-18T11:56:19.593Z,5.63
2017-02-18T11:57:19.167Z,5.6
2017-02-18T11:58:19.163Z,5.54
2017-02-18T11:59:19.557Z,5.48
2017-02-18T12:00:19.557Z,5.48
2017-02-18T12:01:19.521Z,5.34
2017-02-18T12:02:19.515Z,5.44
2017-02-18T12:03:19.090Z,5.33
2017-02-18T12:04:19.085Z,5.24
2017-02-18T12:05:19.478Z,5.2
2017-02-18T12:06:19.079Z,5.13
2017-02-18T12:07:19.435Z,5.1
2017-02-18T12:08:19.043Z,5.06
2017-02-18T12:09:19.423Z,5.03
2017-02-18T12:10:19.413Z,4.92
2017-02-18T12:11:19.393Z,4.87
2017-02-18T12:12:19.397Z,4.69
2017-02-18T12:13:19.376Z,4.61
2017-02-18T12:14:19.361Z,4.51
2017-02-18T12:15:19.349Z,4.53
2017-02-18T12:16:19.334Z,4.5
2017-02-18T12:17:19.332Z,4.4
2017-02-18T12:18:19.324Z,4.42
2017-02-18T12:19:19.302Z,4.39
2017-02-18T12:20:19.293Z,4.39
2017-02-18T12:21:19.276Z,4.35
2017-02-18T12:22:19.258Z,4.33
2017-02-18T12:23:19.254Z,4.32
2017-02-18T12:24:19.240Z,4.4
2017-02-18T12:25:19.230Z,4.46
2017-02-18T12:26:19.227Z,4.48
2017-02-18T12:27:19.185Z,4.38
2017-02-18T12:28:19.199Z,4.42
2017-02-18T12:29:19.172Z,4.51
2017-02-18T12:30:19.160Z,4.66
2017-02-18T12:31:19.152Z,4.74
2017-02-18T12:32:19.133Z,4.87
2017-02-18T12:33:19.121Z,4.97
2017-02-18T12:34:18.714Z,5.05
2017-02-18T12:35:18.685Z,5.09
2017-02-18T12:36:19.082Z,5.12
2017-02-18T12:37:19.053Z,5.16
2017-02-18T12:38:19.044Z,5.16
2017-02-18T12:39:18.640Z,5.21
2017-02-18T12:40:19.032Z,5.27
2017-02-18T12:41:19.024Z,5.15
2017-02-18T12:42:19.007Z,5.27
2017-02-18T12:43:18.994Z,5.36
2017-02-18T12:44:18.969Z,5.24
2017-02-18T12:45:18.965Z,5.33
2017-02-18T12:46:18.949Z,5.23
2017-02-18T12:47:18.537Z,5.23
2017-02-18T12:48:18.122Z,5.24
2017-02-18T12:49:18.511Z,5.26
2017-02-18T12:50:18.905Z,5.33
2017-02-18T12:51:18.892Z,5.39
2017-02-18T12:52:18.875Z,5.44
2017-02-18T12:53:18.877Z,5.37
2017-02-18T12:54:18.852Z,5.41
2017-02-18T12:55:18.429Z,5.49
2017-02-18T12:56:18.827Z,5.49
2017-02-18T12:57:18.817Z,5.57
2017-02-18T12:58:18.415Z,5.55
2017-02-18T12:59:18.794Z,5.59
2017-02-18T13:00:18.778Z,5.54
2017-02-18T13:01:18.764Z,5.62
2017-02-18T13:02:18.344Z,5.54
2017-02-18T13:03:18.724Z,5.57
2017-02-18T13:04:18.721Z,5.54
2017-02-18T13:05:18.309Z,5.44
2017-02-18T13:06:18.297Z,5.57
2017-02-18T13:07:18.685Z,5.49
2017-02-18T13:08:18.679Z,5.51
2017-02-18T13:09:18.669Z,5.44
2017-02-18T13:10:18.255Z,5.42
2017-02-18T13:11:18.229Z,5.44
2017-02-18T13:12:18.635Z,5.45
2017-02-18T13:13:18.603Z,5.46
2017-02-18T13:14:18.188Z,5.48
2017-02-18T13:15:18.588Z,5.42
2017-02-18T13:16:18.567Z,5.36
2017-02-18T13:17:18.548Z,5.37
2017-02-18T13:18:18.564Z,5.44
2017-02-18T13:19:18.521Z,5.33
2017-02-18T13:20:18.522Z,5.34
2017-02-18T13:21:18.506Z,5.21